createdAt,value
2023-08-07T00:02:18.301Z,1.50
2023-08-07T00:04:46.019Z,1.30
2023-08-07T00:07:15.521Z,1.58
2023-08-07T00:09:44.845Z,1.40
2023-08-07T00:12:12.373Z,1.27
2023-08-07T00:14:40.113Z,1.27
2023-08-07T00:17:07.915Z,0.90
2023-08-07T00:19:36.943Z,1.33
2023-08-07T00:22:04.744Z,1.45
2023-08-07T00:24:32.604Z,1.27
2023-08-07T00:27:00.162Z,1.27
2023-08-07T00:29:27.766Z,1.20
2023-08-07T00:31:55.755Z,1.33
2023-08-07T00:34:23.596Z,1.23
2023-08-07T00:36:52.654Z,1.20
2023-08-07T00:39:20.180Z,1.30
2023-08-07T00:41:50.775Z,1.50
2023-08-07T00:44:18.597Z,1.33
2023-08-07T00:46:46.232Z,1.30
2023-08-07T00:49:14.298Z,1.90
2023-08-07T00:51:42.305Z,1.50
2023-08-07T00:54:11.851Z,1.00
2023-08-07T00:56:39.687Z,2.08
2023-08-07T00:59:07.533Z,1.83
2023-08-07T01:01:35.158Z,1.67
2023-08-07T01:04:02.725Z,1.10
2023-08-07T01:06:30.483Z,1.40
2023-08-07T01:08:58.949Z,1.70
2023-08-07T01:11:32.887Z,1.48
2023-08-07T01:14:03.055Z,1.50
2023-08-07T01:16:33.536Z,1.20
2023-08-07T01:19:02.283Z,1.95
2023-08-07T01:21:29.925Z,1.70
2023-08-07T01:23:58.922Z,1.48
2023-08-07T01:26:27.041Z,1.80
2023-08-07T01:28:57.914Z,1.50
2023-08-07T01:31:27.048Z,1.60
2023-08-07T01:33:58.234Z,1.70
2023-08-07T01:36:27.158Z,1.73
2023-08-07T01:39:01.654Z,1.50
2023-08-07T01:41:30.262Z,2.07
2023-08-07T01:43:57.911Z,1.42
2023-08-07T01:46:26.116Z,1.35
2023-08-07T01:48:53.904Z,1.80
2023-08-07T01:51:21.449Z,1.73
2023-08-07T01:53:49.811Z,1.90
2023-08-07T01:56:18.864Z,1.58
2023-08-07T01:58:46.418Z,1.90
2023-08-07T02:01:13.962Z,1.85
2023-08-07T02:03:41.689Z,1.83
2023-08-07T02:06:09.294Z,1.70
2023-08-07T02:08:36.807Z,2.22
2023-08-07T02:11:04.484Z,2.08
2023-08-07T02:13:33.428Z,1.60
2023-08-07T02:16:01.022Z,2.00
2023-08-07T02:18:28.726Z,2.17
2023-08-07T02:20:56.283Z,1.52
2023-08-07T02:23:25.043Z,1.70
2023-08-07T02:25:53.558Z,1.65
2023-08-07T02:28:21.119Z,1.67
2023-08-07T02:30:52.177Z,1.70
2023-08-07T02:33:19.854Z,1.88
2023-08-07T02:38:33.962Z,1.70
2023-08-07T02:41:02.344Z,1.50
2023-08-07T02:43:29.850Z,2.47
2023-08-07T02:45:59.044Z,1.40
2023-08-07T02:48:27.067Z,1.75
2023-08-07T02:50:54.670Z,1.65
2023-08-07T02:53:22.299Z,1.77
2023-08-07T02:55:51.146Z,1.53
2023-08-07T02:58:18.731Z,1.50
2023-08-07T03:00:46.504Z,2.17
2023-08-07T03:03:15.405Z,1.75
2023-08-07T03:05:49.497Z,1.50
2023-08-07T03:08:17.134Z,1.80
2023-08-07T03:10:44.710Z,2.00
2023-08-07T03:13:12.538Z,2.25
2023-08-07T03:15:40.160Z,2.00
2023-08-07T03:18:07.836Z,1.92
2023-08-07T03:20:38.261Z,2.17
2023-08-07T03:23:05.926Z,1.40
2023-08-07T03:25:33.515Z,1.95
2023-08-07T03:28:01.049Z,1.95
2023-08-07T03:30:28.675Z,1.80
2023-08-07T03:32:57.050Z,1.83
2023-08-07T03:35:25.044Z,1.98
2023-08-07T03:37:54.067Z,2.08
2023-08-07T03:40:21.667Z,1.75
2023-08-07T03:42:49.264Z,2.25
2023-08-07T03:45:16.949Z,1.97
2023-08-07T03:47:44.788Z,2.25
2023-08-07T03:50:12.342Z,1.92
2023-08-07T03:52:39.881Z,2.38
2023-08-07T03:55:09.147Z,1.95
2023-08-07T03:57:39.379Z,2.00
2023-08-07T04:00:08.422Z,2.03
2023-08-07T04:02:36.018Z,2.00
2023-08-07T04:05:03.656Z,2.63
2023-08-07T04:07:31.346Z,2.28
2023-08-07T04:09:59.956Z,2.30
2023-08-07T04:12:28.876Z,2.20
2023-08-07T04:14:56.498Z,2.47
2023-08-07T04:17:24.077Z,2.50
2023-08-07T04:19:51.656Z,2.33
2023-08-07T04:22:19.255Z,2.60
2023-08-07T04:24:47.252Z,2.53
2023-08-07T04:27:14.900Z,2.60
2023-08-07T04:29:43.919Z,2.78
2023-08-07T04:32:11.480Z,2.35
2023-08-07T04:34:39.059Z,2.30
2023-08-07T04:37:07.486Z,2.30
2023-08-07T04:39:35.029Z,1.98
2023-08-07T04:42:02.610Z,2.42
2023-08-07T04:44:30.320Z,2.90
2023-08-07T04:46:59.435Z,2.70
2023-08-07T04:49:27.451Z,2.78
2023-08-07T04:51:55.158Z,2.55
2023-08-07T04:54:24.097Z,2.90
2023-08-07T04:56:52.025Z,3.15
2023-08-07T04:59:22.329Z,3.20
2023-08-07T05:01:49.986Z,3.10
2023-08-07T05:04:18.922Z,2.55
2023-08-07T05:06:46.745Z,2.30
2023-08-07T05:09:14.290Z,2.50
2023-08-07T05:11:41.914Z,2.30
2023-08-07T05:14:12.011Z,2.80
2023-08-07T05:16:39.724Z,3.20
2023-08-07T05:19:07.364Z,3.20
2023-08-07T05:21:36.672Z,3.30
2023-08-07T05:24:04.883Z,3.30
2023-08-07T05:26:32.506Z,3.55
2023-08-07T05:29:00.423Z,3.83
2023-08-07T05:31:29.619Z,3.30
2023-08-07T05:33:57.452Z,3.30
2023-08-07T05:36:25.071Z,2.97
2023-08-07T05:38:53.936Z,3.20
2023-08-07T05:41:21.575Z,3.53
2023-08-07T05:43:49.170Z,3.15
2023-08-07T05:46:16.771Z,3.60
2023-08-07T05:48:44.396Z,3.67
2023-08-07T05:51:13.142Z,3.33
2023-08-07T05:53:42.193Z,3.85
2023-08-07T05:56:11.225Z,3.40
2023-08-07T05:58:38.928Z,3.60
2023-08-07T06:01:06.472Z,3.33
2023-08-07T06:03:34.244Z,3.38
2023-08-07T06:06:02.192Z,3.30
2023-08-07T06:08:30.105Z,3.38
2023-08-07T06:10:57.672Z,3.08
2023-08-07T06:13:36.004Z,3.10
2023-08-07T06:16:04.519Z,3.10
2023-08-07T06:18:33.281Z,3.25
2023-08-07T06:21:00.816Z,3.10
2023-08-07T06:23:28.375Z,3.17
2023-08-07T06:25:59.638Z,3.13
2023-08-07T06:28:28.875Z,3.88
2023-08-07T06:31:02.490Z,3.50
2023-08-07T06:33:30.044Z,2.90
2023-08-07T06:35:57.615Z,3.13
2023-08-07T06:38:27.685Z,2.90
2023-08-07T06:40:55.388Z,3.08
2023-08-07T06:43:22.969Z,2.85
2023-08-07T06:45:52.967Z,3.15
2023-08-07T06:48:20.580Z,3.30
2023-08-07T06:50:48.637Z,3.30
2023-08-07T06:53:16.511Z,3.40
2023-08-07T06:55:44.483Z,2.85
2023-08-07T06:58:13.355Z,2.30
2023-08-07T07:00:41.217Z,2.40
2023-08-07T07:03:11.055Z,2.37
2023-08-07T07:05:40.181Z,1.95
2023-08-07T07:08:09.295Z,2.55
2023-08-07T07:10:36.893Z,1.70
2023-08-07T07:13:04.894Z,1.60
2023-08-07T07:15:32.669Z,1.70
2023-08-07T07:18:00.906Z,2.05
2023-08-07T07:20:29.949Z,2.20
2023-08-07T07:22:57.662Z,1.70
2023-08-07T07:25:25.926Z,1.30
2023-08-07T07:27:53.454Z,1.47
2023-08-07T07:30:21.390Z,1.83
2023-08-07T07:32:49.011Z,1.60
2023-08-07T07:35:16.591Z,1.50
2023-08-07T07:37:45.657Z,1.40
2023-08-07T07:40:13.752Z,1.70
2023-08-07T07:42:41.293Z,1.70
2023-08-07T07:45:09.347Z,1.42
2023-08-07T07:47:37.370Z,1.35
2023-08-07T07:50:09.586Z,1.60
2023-08-07T07:52:37.221Z,1.93
2023-08-07T07:55:07.222Z,1.60
2023-08-07T07:57:35.201Z,1.50
2023-08-07T08:00:05.475Z,1.50
2023-08-07T08:02:33.022Z,1.70
2023-08-07T08:05:00.720Z,1.27
2023-08-07T08:07:28.576Z,1.40
2023-08-07T08:09:56.270Z,1.80
2023-08-07T08:12:25.389Z,1.52
2023-08-07T08:14:56.082Z,1.15
2023-08-07T08:17:41.171Z,1.17
2023-08-07T08:20:09.470Z,1.42
2023-08-07T08:22:37.080Z,1.63
2023-08-07T08:25:05.787Z,1.30
2023-08-07T08:27:34.811Z,1.30
2023-08-07T08:30:02.456Z,1.80
2023-08-07T08:32:33.187Z,1.88
2023-08-07T08:35:00.790Z,1.23
2023-08-07T08:37:30.251Z,1.48
2023-08-07T08:39:58.885Z,1.48
2023-08-07T08:42:26.891Z,1.37
2023-08-07T08:44:56.876Z,1.60
2023-08-07T08:47:25.090Z,1.40
2023-08-07T08:49:53.547Z,1.20
2023-08-07T08:52:21.443Z,1.10
2023-08-07T08:54:49.242Z,1.20
2023-08-07T08:57:16.842Z,0.90
2023-08-07T08:59:46.245Z,1.30
2023-08-07T09:02:15.930Z,1.25
2023-08-07T09:04:43.947Z,1.00
2023-08-07T09:07:12.058Z,0.90
2023-08-07T09:09:40.125Z,0.90
2023-08-07T09:12:10.474Z,1.20
2023-08-07T09:14:40.339Z,1.02
2023-08-07T09:17:08.154Z,1.40
2023-08-07T09:19:37.362Z,1.40
2023-08-07T09:22:05.120Z,1.55
2023-08-07T09:24:33.329Z,1.10
2023-08-07T09:27:00.908Z,1.20
2023-08-07T09:29:28.985Z,1.38
2023-08-07T09:31:56.627Z,1.13
2023-08-07T09:34:24.426Z,1.40
2023-08-07T09:36:54.065Z,1.20
2023-08-07T09:39:27.940Z,1.38
2023-08-07T09:41:56.884Z,1.30
2023-08-07T09:44:24.903Z,1.10
2023-08-07T09:46:52.644Z,1.00
2023-08-07T09:49:20.573Z,1.10
2023-08-07T09:51:48.824Z,1.35
2023-08-07T09:54:18.004Z,1.20
2023-08-07T09:56:47.313Z,1.20
2023-08-07T09:59:18.913Z,1.10
2023-08-07T10:01:46.764Z,2.10
2023-08-07T10:04:16.793Z,0.90
2023-08-07T10:06:44.455Z,1.10
2023-08-07T10:09:12.289Z,1.87
2023-08-07T10:11:41.692Z,1.40
2023-08-07T10:14:12.666Z,1.35
2023-08-07T10:16:42.366Z,0.80
2023-08-07T10:19:10.448Z,1.02
2023-08-07T10:21:38.665Z,0.97
2023-08-07T10:24:06.822Z,0.77
2023-08-07T10:26:35.115Z,0.80
2023-08-07T10:29:05.021Z,1.00
2023-08-07T10:31:33.641Z,1.33
2023-08-07T10:34:01.273Z,0.90
2023-08-07T10:36:34.283Z,1.20
2023-08-07T10:39:08.273Z,1.40
2023-08-07T10:41:40.298Z,1.08
2023-08-07T10:44:18.719Z,1.20
2023-08-07T10:46:49.752Z,1.13
2023-08-07T10:49:32.357Z,1.38
2023-08-07T10:51:59.965Z,1.48
2023-08-07T10:54:31.386Z,0.95
2023-08-07T10:57:01.783Z,1.20
2023-08-07T10:59:31.395Z,1.20
2023-08-07T11:01:59.004Z,1.50
2023-08-07T11:04:27.589Z,1.50
2023-08-07T11:06:55.587Z,1.23
2023-08-07T11:09:23.336Z,1.27
2023-08-07T11:11:51.064Z,1.33
2023-08-07T11:14:19.326Z,0.82
2023-08-07T11:16:49.035Z,1.02
2023-08-07T11:19:17.141Z,0.93
2023-08-07T11:21:45.673Z,1.00
2023-08-07T11:24:14.488Z,1.17
2023-08-07T11:26:42.192Z,0.90
2023-08-07T11:29:10.471Z,1.08
2023-08-07T11:31:38.223Z,0.88
2023-08-07T11:34:09.618Z,0.85
2023-08-07T11:36:43.454Z,0.97
2023-08-07T11:39:11.984Z,1.10
2023-08-07T11:41:41.441Z,1.17
2023-08-07T11:44:09.836Z,0.90
2023-08-07T11:46:38.098Z,0.90
2023-08-07T11:49:07.615Z,1.10
2023-08-07T11:51:35.226Z,1.42
2023-08-07T11:54:03.176Z,1.30
2023-08-07T11:56:31.211Z,1.08
2023-08-07T11:58:59.344Z,1.08
2023-08-07T12:01:29.114Z,1.07
2023-08-07T12:03:57.660Z,1.20
2023-08-07T12:06:27.309Z,1.30
2023-08-07T12:08:56.303Z,1.23
2023-08-07T12:11:24.142Z,1.20
2023-08-07T12:13:52.327Z,0.90
2023-08-07T12:16:20.175Z,1.30
2023-08-07T12:18:48.299Z,1.10
2023-08-07T12:21:16.955Z,1.10
2023-08-07T12:23:49.192Z,1.05
2023-08-07T12:26:17.339Z,0.80
2023-08-07T12:28:45.022Z,0.80
2023-08-07T12:31:12.621Z,1.20
2023-08-07T12:33:40.451Z,0.88
2023-08-07T12:36:20.199Z,1.20
2023-08-07T12:38:50.125Z,1.10
2023-08-07T12:43:48.109Z,1.67
2023-08-07T12:48:46.484Z,1.50
2023-08-07T12:51:16.353Z,1.30
2023-08-07T12:53:45.876Z,1.50
2023-08-07T12:56:14.850Z,1.27
2023-08-07T12:58:42.823Z,1.00
2023-08-07T13:01:10.924Z,1.65
2023-08-07T13:03:38.685Z,2.00
2023-08-07T13:06:08.633Z,1.70
2023-08-07T13:08:36.321Z,1.40
2023-08-07T13:11:03.954Z,1.60
2023-08-07T13:13:32.900Z,1.35
2023-08-07T13:16:00.511Z,1.60
2023-08-07T13:18:28.273Z,1.75
2023-08-07T13:20:55.990Z,1.77
2023-08-07T13:23:23.697Z,1.75
2023-08-07T13:25:51.228Z,2.00
2023-08-07T13:28:19.364Z,2.10
2023-08-07T13:30:48.426Z,1.67
2023-08-07T13:33:16.075Z,1.70
2023-08-07T13:35:46.384Z,1.58
2023-08-07T13:38:15.640Z,1.38
2023-08-07T13:40:45.178Z,1.67
2023-08-07T13:43:13.951Z,1.63
2023-08-07T13:45:41.675Z,1.17
2023-08-07T13:48:11.386Z,0.80
2023-08-07T13:50:39.879Z,1.58
2023-08-07T13:53:14.318Z,1.10
2023-08-07T13:55:43.217Z,1.58
2023-08-07T13:58:11.345Z,1.48
2023-08-07T14:00:39.892Z,1.75
2023-08-07T14:03:08.430Z,1.60
2023-08-07T14:05:39.236Z,1.53
2023-08-07T14:08:06.770Z,1.30
2023-08-07T14:10:34.380Z,1.58
2023-08-07T14:13:02.407Z,1.10
2023-08-07T14:15:30.113Z,1.20
2023-08-07T14:17:58.764Z,1.47
2023-08-07T14:20:27.852Z,1.52
2023-08-07T14:23:03.013Z,1.45
2023-08-07T14:25:33.427Z,0.90
2023-08-07T14:28:00.994Z,1.20
2023-08-07T14:30:28.663Z,1.57
2023-08-07T14:32:56.370Z,1.17
2023-08-07T14:35:24.056Z,0.90
2023-08-07T14:37:51.854Z,1.23
2023-08-07T14:40:20.841Z,1.33
2023-08-07T14:42:48.406Z,1.07
2023-08-07T14:45:16.840Z,1.13
2023-08-07T14:47:44.752Z,1.58
2023-08-07T14:50:11.560Z,0.95
2023-08-07T14:52:39.141Z,1.23
2023-08-07T14:55:07.506Z,1.50
2023-08-07T14:57:36.594Z,0.90
2023-08-07T15:00:06.720Z,1.50
2023-08-07T15:02:35.868Z,1.83
2023-08-07T15:05:03.413Z,1.45
2023-08-07T15:07:30.971Z,1.03
2023-08-07T15:09:58.772Z,1.27
2023-08-07T15:12:26.397Z,1.60
2023-08-07T15:14:55.537Z,1.25
2023-08-07T15:17:26.712Z,1.33
2023-08-07T15:19:54.468Z,1.47
2023-08-07T15:22:22.061Z,1.17
2023-08-07T15:24:49.759Z,1.60
2023-08-07T15:27:17.411Z,1.42
2023-08-07T15:29:47.690Z,1.20
2023-08-07T15:32:19.891Z,1.80
2023-08-07T15:34:47.537Z,1.70
2023-08-07T15:37:15.155Z,1.75
2023-08-07T15:39:42.929Z,1.20
2023-08-07T15:42:10.554Z,1.00
2023-08-07T15:44:39.538Z,1.47
2023-08-07T15:47:07.372Z,1.05
2023-08-07T15:49:37.863Z,1.15
2023-08-07T15:52:05.828Z,1.15
2023-08-07T15:54:33.354Z,0.98
2023-08-07T15:57:01.224Z,0.87
2023-08-07T15:59:29.186Z,0.90
2023-08-07T16:01:56.870Z,1.08
2023-08-07T16:04:25.027Z,1.00
2023-08-07T16:06:54.046Z,1.10
2023-08-07T16:09:22.290Z,0.90
2023-08-07T16:11:50.827Z,1.10
2023-08-07T16:14:24.793Z,1.30
2023-08-07T16:16:53.205Z,0.77
2023-08-07T16:19:20.825Z,1.33
2023-08-07T16:21:48.510Z,0.80
2023-08-07T16:24:18.249Z,1.10
2023-08-07T16:26:45.850Z,1.08
2023-08-07T16:29:13.476Z,0.90
2023-08-07T16:31:41.356Z,1.38
2023-08-07T16:34:09.966Z,1.43
2023-08-07T16:36:38.946Z,1.00
2023-08-07T16:39:07.697Z,1.10
2023-08-07T16:41:37.396Z,1.05
2023-08-07T16:44:05.166Z,1.20
2023-08-07T16:46:33.772Z,1.20
2023-08-07T16:49:01.416Z,1.30
2023-08-07T16:51:28.976Z,1.40
2023-08-07T16:53:56.619Z,1.38
2023-08-07T16:56:25.020Z,1.10
2023-08-07T16:58:54.064Z,1.00
2023-08-07T17:01:22.835Z,1.00
2023-08-07T17:03:50.519Z,0.77
2023-08-07T17:06:18.123Z,0.95
2023-08-07T17:08:47.388Z,1.20
2023-08-07T17:11:15.134Z,1.10
2023-08-07T17:13:42.774Z,0.50
2023-08-07T17:16:12.014Z,0.73
2023-08-07T17:18:39.554Z,1.08
2023-08-07T17:21:07.120Z,0.90
2023-08-07T17:23:34.801Z,1.10
2023-08-07T17:26:03.926Z,1.65
2023-08-07T17:28:31.572Z,1.52
2023-08-07T17:30:59.337Z,1.20
2023-08-07T17:33:28.830Z,0.90
2023-08-07T17:35:56.595Z,1.40
2023-08-07T17:38:30.169Z,1.10
2023-08-07T17:41:02.402Z,1.00
2023-08-07T17:43:30.002Z,0.80
2023-08-07T17:45:57.706Z,1.48
2023-08-07T17:48:25.251Z,0.90
2023-08-07T17:50:54.996Z,0.98
2023-08-07T17:53:22.831Z,1.05
2023-08-07T17:55:50.782Z,1.00
2023-08-07T17:58:18.978Z,1.08
2023-08-07T18:00:46.847Z,1.50
2023-08-07T18:03:15.561Z,1.23
2023-08-07T18:05:46.046Z,0.82
2023-08-07T18:08:15.632Z,1.15
2023-08-07T18:10:43.218Z,0.95
2023-08-07T18:13:10.850Z,1.10
2023-08-07T18:15:38.672Z,0.65
2023-08-07T18:18:06.607Z,0.95
2023-08-07T18:20:36.524Z,1.08
2023-08-07T18:23:04.323Z,0.80
2023-08-07T18:25:33.361Z,1.10
2023-08-07T18:28:01.169Z,0.90
2023-08-07T18:30:29.027Z,1.10
2023-08-07T18:32:56.661Z,1.02
2023-08-07T18:35:24.938Z,1.38
2023-08-07T18:37:52.873Z,1.13
2023-08-07T18:40:20.455Z,1.48
2023-08-07T18:42:49.631Z,1.50
2023-08-07T18:45:17.249Z,1.15
2023-08-07T18:47:44.874Z,1.42
2023-08-07T18:50:12.491Z,0.70
2023-08-07T18:52:40.427Z,0.80
2023-08-07T18:55:08.745Z,1.05
2023-08-07T18:57:38.303Z,1.20
2023-08-07T19:00:10.320Z,1.20
2023-08-07T19:02:38.815Z,0.90
2023-08-07T19:05:07.102Z,1.00
2023-08-07T19:07:34.997Z,1.17
2023-08-07T19:10:02.584Z,1.23
2023-08-07T19:12:30.261Z,1.25
2023-08-07T19:14:58.215Z,1.13
2023-08-07T19:17:29.780Z,1.30
2023-08-07T19:19:57.505Z,1.20
2023-08-07T19:22:26.551Z,1.30
2023-08-07T19:24:54.474Z,0.95
2023-08-07T19:27:22.031Z,1.10
2023-08-07T19:29:49.904Z,1.02
2023-08-07T19:32:18.001Z,1.27
2023-08-07T19:34:46.885Z,1.00
2023-08-07T19:37:14.672Z,1.30
2023-08-07T19:39:42.331Z,0.80
2023-08-07T19:42:09.888Z,1.10
2023-08-07T19:44:37.738Z,1.20
2023-08-07T19:47:05.420Z,1.48
2023-08-07T19:49:33.268Z,1.23
2023-08-07T19:52:03.640Z,1.23
2023-08-07T19:54:31.778Z,1.52
2023-08-07T19:57:00.733Z,1.80
2023-08-07T19:59:28.902Z,0.90
2023-08-07T20:01:57.350Z,1.58
2023-08-07T20:04:27.815Z,1.50
2023-08-07T20:06:57.062Z,1.20
2023-08-07T20:09:27.172Z,1.70
2023-08-07T20:11:57.987Z,0.98
2023-08-07T20:14:26.198Z,1.65
2023-08-07T20:16:54.578Z,1.33
2023-08-07T20:19:23.984Z,1.25
2023-08-07T20:21:52.108Z,1.10
2023-08-07T20:24:19.948Z,1.27
2023-08-07T20:26:49.140Z,1.05
2023-08-07T20:29:18.560Z,1.00
2023-08-07T20:31:47.599Z,1.35
2023-08-07T20:34:16.120Z,1.10
2023-08-07T20:36:43.997Z,1.10
2023-08-07T20:39:12.358Z,1.10
2023-08-07T20:41:41.111Z,1.10
2023-08-07T20:44:10.225Z,1.73
2023-08-07T20:46:38.096Z,1.15
2023-08-07T20:49:05.830Z,1.33
2023-08-07T20:51:33.591Z,1.00
2023-08-07T20:54:01.270Z,1.07
2023-08-07T20:56:28.932Z,1.20
2023-08-07T20:58:56.607Z,1.23
2023-08-07T21:01:26.664Z,1.10
2023-08-07T21:03:54.296Z,1.33
2023-08-07T21:06:22.051Z,1.20
2023-08-07T21:08:49.882Z,1.00
2023-08-07T21:11:17.439Z,1.20
2023-08-07T21:13:45.200Z,0.88
2023-08-07T21:16:15.273Z,1.10
2023-08-07T21:18:43.385Z,1.20
2023-08-07T21:21:11.087Z,1.10
2023-08-07T21:23:38.696Z,1.00
2023-08-07T21:26:08.528Z,1.30
2023-08-07T21:28:36.330Z,0.70
2023-08-07T21:31:04.094Z,1.10
2023-08-07T21:33:31.783Z,1.00
2023-08-07T21:36:00.992Z,1.00
2023-08-07T21:38:28.565Z,1.27
2023-08-07T21:40:56.077Z,2.00
2023-08-07T21:43:23.751Z,2.57
2023-08-07T21:45:51.396Z,1.30
2023-08-07T21:48:18.986Z,1.80
2023-08-07T21:50:46.981Z,1.52
2023-08-07T21:53:15.927Z,1.20
2023-08-07T21:55:43.550Z,1.37
2023-08-07T21:58:11.514Z,1.10
2023-08-07T22:00:39.324Z,1.08
2023-08-07T22:03:07.254Z,1.00
2023-08-07T22:05:35.046Z,1.48
2023-08-07T22:08:06.034Z,1.03
2023-08-07T22:10:35.007Z,0.80
2023-08-07T22:13:02.773Z,1.00
2023-08-07T22:15:30.329Z,1.00
2023-08-07T22:17:58.157Z,0.93
2023-08-07T22:20:26.333Z,1.13
2023-08-07T22:22:53.877Z,1.10
2023-08-07T22:25:21.705Z,1.00
2023-08-07T22:27:52.820Z,1.15
2023-08-07T22:30:22.623Z,1.00
2023-08-07T22:32:51.345Z,1.03
2023-08-07T22:35:19.169Z,1.40
2023-08-07T22:37:46.818Z,1.33
2023-08-07T22:40:14.536Z,1.20
2023-08-07T22:42:42.221Z,1.10
2023-08-07T22:45:12.425Z,1.20
2023-08-07T22:47:40.114Z,1.02
2023-08-07T22:50:08.760Z,1.35
2023-08-07T22:52:36.570Z,1.38
2023-08-07T22:55:04.504Z,1.40
2023-08-07T22:57:32.255Z,1.17
2023-08-07T22:59:59.906Z,1.33
2023-08-07T23:02:29.653Z,1.48
2023-08-07T23:04:57.383Z,1.23
2023-08-07T23:07:25.426Z,1.58
2023-08-07T23:09:53.030Z,1.30
2023-08-07T23:12:20.660Z,1.35
2023-08-07T23:14:48.290Z,1.75
2023-08-07T23:17:18.791Z,1.50
2023-08-07T23:19:47.924Z,1.27
2023-08-07T23:22:18.406Z,1.30
2023-08-07T23:24:45.978Z,1.60
2023-08-07T23:27:13.950Z,1.20
2023-08-07T23:29:42.670Z,1.20
2023-08-07T23:32:10.765Z,1.38
2023-08-07T23:34:38.448Z,1.03
2023-08-07T23:37:07.461Z,1.30
2023-08-07T23:39:35.063Z,1.40
2023-08-07T23:42:02.757Z,1.27
2023-08-07T23:44:30.466Z,1.20
2023-08-07T23:46:58.188Z,1.03
2023-08-07T23:49:26.578Z,1.33
2023-08-07T23:51:57.499Z,1.38
2023-08-07T23:54:26.664Z,1.00
2023-08-07T23:56:55.550Z,1.35
2023-08-07T23:59:23.116Z,0.80
